Georgetown, TX (78633)

5:37 AM CDT on August 24, 2016 (GMT -0500)
Serenada West | | Change Station

Elev 790 ft 30.69 °N, 97.70 °W | Updated 1 second ago

Overcast
Overcast
76.1 °F
Feels Like 77 °F
N
6.3
Wind Variable Wind from South
Gusts 8.1 mph

Today
High -- | Low -- °F
--% Chance of Precip.
Yesterday
High -- | Low -- °F
Precip. -- in
Pressure 30.10 in
Visibility 10.0 miles
Clouds Overcast 1500 ft
Heat Index 77 °F
Dew Point 71 °F
Humidity 84%
Rainfall 0.00 in
Snow Depth Not available.
7:02 AM 8:02 PM
Waning Gibbous, 58% visible
METAR KGTU 241035Z 19008KT 10SM OVC015 25/22 A3010 RMK AO1
Pressure 30.10 in
Visibility 10.0 miles
Clouds Overcast 1500 ft
Heat Index 77 °F
Dew Point 71 °F
Humidity 84%
Rainfall 0.00 in
Snow Depth Not available.
7:02 AM 8:02 PM
Waning Gibbous, 58% visible
METAR KGTU 241035Z 19008KT 10SM OVC015 25/22 A3010 RMK AO1

10-Day Weather Forecast

Almanac

Astronomy

Aug. 24, 2016 Rise Set
Actual Time
Civil Twilight
Nautical Twilight
Astronomical Twilight
Moon
Length of Visible Light
Length of Day
Tomorrow will be .
, % of the Moon is Illuminated

Today's Extremes

State Highs State Lows

Community

WunderPhotos

Upload Photos

1,934,562 photos uploaded!

WunderBlog® & News

Nearby

Air Quality

  Air Quality AQ Index Pollutant
Not available.

Snow Depth

Station Depth Elevation

Earthquake Activity

City Distance Mag. Time & Date
Minimum magnitude displayed is 2.5.

Coastal Water Temperatures

Place Temperature

Stations

Nearby Weather Stations

Station Location Temp. Windchill Dew Point Humidity Wind Precip. Elev Updated Type
                   

Watches & Warnings

There are currently no watches in effect.